createdAt,value
2023-05-24T00:00:48.438Z,43.24
2023-05-24T00:01:48.009Z,43.23
2023-05-24T00:02:48.064Z,43.24
2023-05-24T00:03:48.074Z,43.26
2023-05-24T00:04:48.100Z,43.22
2023-05-24T00:05:47.989Z,43.25
2023-05-24T00:06:47.962Z,43.22
2023-05-24T00:07:47.957Z,43.22
2023-05-24T00:08:47.944Z,43.23
2023-05-24T00:09:47.949Z,43.21
2023-05-24T00:10:47.946Z,43.22
2023-05-24T00:11:47.975Z,43.22
2023-05-24T00:12:47.940Z,43.17
2023-05-24T00:13:47.916Z,43.21
2023-05-24T00:14:47.905Z,43.22
2023-05-24T00:15:47.918Z,43.20
2023-05-24T00:16:47.910Z,43.19
2023-05-24T00:17:47.919Z,43.20
2023-05-24T00:18:47.881Z,43.19
2023-05-24T00:19:47.892Z,43.18
2023-05-24T00:20:48.210Z,43.16
2023-05-24T00:21:47.878Z,43.19
2023-05-24T00:22:47.941Z,43.20
2023-05-24T00:23:47.956Z,43.19
2023-05-24T00:24:48.010Z,43.19
2023-05-24T00:25:48.172Z,43.20
2023-05-24T00:26:48.111Z,43.20
2023-05-24T00:27:48.139Z,43.19
2023-05-24T00:28:48.197Z,43.16
2023-05-24T00:29:48.259Z,43.18
2023-05-24T00:30:48.296Z,43.17
2023-05-24T00:31:48.363Z,43.14
2023-05-24T00:34:07.333Z,43.36
2023-05-24T00:35:07.473Z,43.27
2023-05-24T00:36:07.551Z,43.23
2023-05-24T00:37:07.333Z,43.21
2023-05-24T00:38:07.324Z,43.19
2023-05-24T00:39:07.326Z,43.17
2023-05-24T00:40:07.292Z,43.17
2023-05-24T00:41:07.633Z,43.17
2023-05-24T00:42:07.280Z,43.16
2023-05-24T00:43:07.289Z,43.13
2023-05-24T00:44:07.260Z,43.13
2023-05-24T00:45:07.261Z,43.15
2023-05-24T00:46:07.742Z,43.15
2023-05-24T00:47:07.264Z,43.11
2023-05-24T00:48:07.276Z,43.14
2023-05-24T00:49:07.311Z,43.10
2023-05-24T00:50:07.246Z,43.12
2023-05-24T00:51:08.059Z,43.14
2023-05-24T00:52:07.224Z,43.11
2023-05-24T00:53:07.215Z,43.13
2023-05-24T00:54:07.204Z,43.10
2023-05-24T00:55:07.188Z,43.12
2023-05-24T00:56:07.558Z,43.09
2023-05-24T00:57:07.201Z,43.09
2023-05-24T00:58:07.180Z,43.11
2023-05-24T00:59:07.190Z,43.09
2023-05-24T01:00:07.193Z,43.10
2023-05-24T01:01:07.609Z,43.10
2023-05-24T01:02:07.147Z,43.05
2023-05-24T01:03:07.357Z,43.10
2023-05-24T01:04:07.149Z,43.09
2023-05-24T01:05:07.166Z,43.10
2023-05-24T01:06:07.117Z,43.10
2023-05-24T01:07:07.125Z,43.09
2023-05-24T01:08:07.108Z,43.07
2023-05-24T01:09:07.117Z,43.06
2023-05-24T01:10:07.091Z,43.06
2023-05-24T01:11:07.567Z,43.03
2023-05-24T01:12:07.115Z,43.04
2023-05-24T01:13:07.095Z,43.02
2023-05-24T01:14:07.088Z,43.06
2023-05-24T01:15:07.082Z,43.05
2023-05-24T01:16:07.080Z,43.05
2023-05-24T01:17:07.044Z,43.07
2023-05-24T01:18:07.045Z,43.02
2023-05-24T01:19:07.043Z,43.03
2023-05-24T01:20:07.144Z,43.04
2023-05-24T01:21:07.042Z,43.02
2023-05-24T01:22:07.021Z,43.03
2023-05-24T01:23:07.009Z,43.03
2023-05-24T01:24:07.019Z,43.02
2023-05-24T01:25:07.057Z,43.03
2023-05-24T01:26:07.049Z,43.04
2023-05-24T01:27:07.106Z,43.03
2023-05-24T01:28:07.097Z,42.99
2023-05-24T01:29:07.142Z,43.03
2023-05-24T01:30:07.090Z,43.00
2023-05-24T01:31:07.114Z,43.01
2023-05-24T01:32:07.076Z,43.03
2023-05-24T01:33:07.149Z,42.99
2023-05-24T01:34:07.096Z,42.99
2023-05-24T01:35:07.088Z,43.04
2023-05-24T01:36:07.149Z,42.99
2023-05-24T01:37:07.161Z,42.99
2023-05-24T01:38:07.204Z,42.99
2023-05-24T01:39:07.201Z,43.01
2023-05-24T01:40:07.232Z,42.98
2023-05-24T01:41:07.268Z,42.99
2023-05-24T01:42:07.244Z,42.99
2023-05-24T01:43:07.239Z,42.97
2023-05-24T01:44:07.269Z,43.00
2023-05-24T01:45:07.286Z,42.98
2023-05-24T01:46:07.289Z,42.99
2023-05-24T01:47:07.305Z,43.02
2023-05-24T01:48:07.308Z,42.99
2023-05-24T01:49:07.327Z,43.00
2023-05-24T01:50:07.391Z,43.01
2023-05-24T01:51:07.437Z,42.98
2023-05-24T01:52:07.470Z,42.97
2023-05-24T01:53:07.452Z,43.00
2023-05-24T01:54:07.495Z,42.99
2023-05-24T01:55:07.521Z,42.95
2023-05-24T01:56:07.544Z,42.96
2023-05-24T01:57:07.577Z,43.02
2023-05-24T01:58:07.610Z,42.97
2023-05-24T01:59:07.622Z,42.99
2023-05-24T02:00:07.622Z,42.98
2023-05-24T02:01:07.730Z,42.97
2023-05-24T02:02:08.623Z,42.95
2023-05-24T02:03:07.851Z,42.95
2023-05-24T02:04:07.812Z,42.97
2023-05-24T02:05:07.741Z,42.95
2023-05-24T02:06:07.727Z,42.97
2023-05-24T02:07:07.711Z,42.94
2023-05-24T02:08:07.719Z,42.97
2023-05-24T02:09:07.741Z,42.97
2023-05-24T02:10:07.780Z,42.94
2023-05-24T02:11:07.754Z,42.95
2023-05-24T02:12:07.744Z,42.94
2023-05-24T02:13:07.753Z,42.95
2023-05-24T02:14:07.728Z,42.94
2023-05-24T02:15:07.729Z,42.95
2023-05-24T02:16:07.740Z,42.95
2023-05-24T02:17:07.764Z,42.94
2023-05-24T02:18:07.894Z,42.95
2023-05-24T02:19:07.781Z,42.93
2023-05-24T02:20:07.966Z,42.93
2023-05-24T02:21:07.799Z,42.92
2023-05-24T02:22:07.802Z,42.91
2023-05-24T02:23:07.824Z,42.92
2023-05-24T02:24:07.819Z,42.95
2023-05-24T02:25:07.812Z,42.91
2023-05-24T02:26:07.840Z,42.89
2023-05-24T02:27:07.809Z,42.87
2023-05-24T02:28:07.807Z,42.91
2023-05-24T02:29:07.809Z,42.93
2023-05-24T02:30:07.819Z,42.88
2023-05-24T02:31:07.866Z,42.89
2023-05-24T02:32:07.792Z,42.93
2023-05-24T02:33:07.833Z,42.89
2023-05-24T02:34:07.838Z,42.90
2023-05-24T02:35:07.883Z,42.93
2023-05-24T02:36:07.911Z,42.92
2023-05-24T02:37:07.918Z,42.90
2023-05-24T02:38:07.894Z,42.89
2023-05-24T02:39:07.914Z,42.88
2023-05-24T02:40:08.018Z,42.90
2023-05-24T02:41:08.887Z,42.87
2023-05-24T02:42:07.879Z,42.88
2023-05-24T02:43:07.876Z,42.89
2023-05-24T02:44:07.887Z,42.89
2023-05-24T02:45:07.896Z,42.89
2023-05-24T02:46:07.954Z,42.87
2023-05-24T02:47:07.871Z,42.88
2023-05-24T02:48:07.928Z,42.89
2023-05-24T02:49:07.886Z,42.90
2023-05-24T02:50:07.864Z,42.89
2023-05-24T02:51:07.873Z,42.89
2023-05-24T02:52:07.867Z,42.84
2023-05-24T02:53:07.863Z,42.88
2023-05-24T02:54:07.846Z,42.86
2023-05-24T02:55:07.846Z,42.88
2023-05-24T02:56:07.830Z,42.84
2023-05-24T02:57:07.852Z,42.87
2023-05-24T02:58:07.853Z,42.88
2023-05-24T02:59:07.816Z,42.85
2023-05-24T03:00:07.822Z,42.87
2023-05-24T03:01:07.814Z,42.87
2023-05-24T03:02:07.858Z,42.86
2023-05-24T03:03:07.911Z,42.89
2023-05-24T03:04:07.870Z,42.87
2023-05-24T03:05:07.837Z,42.83
2023-05-24T03:06:07.805Z,42.86
2023-05-24T03:07:07.822Z,42.83
2023-05-24T03:08:07.780Z,42.82
2023-05-24T03:09:07.772Z,42.81
2023-05-24T03:10:07.793Z,42.84
2023-05-24T03:11:07.785Z,42.80
2023-05-24T03:12:07.758Z,42.85
2023-05-24T03:13:07.751Z,42.83
2023-05-24T03:14:07.757Z,42.84
2023-05-24T03:15:07.738Z,42.84
2023-05-24T03:16:07.814Z,42.81
2023-05-24T03:17:07.735Z,42.80
2023-05-24T03:18:07.766Z,42.82
2023-05-24T03:19:09.925Z,42.81
2023-05-24T03:20:07.738Z,42.82
2023-05-24T03:21:07.808Z,42.81
2023-05-24T03:22:07.693Z,42.83
2023-05-24T03:23:07.719Z,42.80
2023-05-24T03:24:07.707Z,42.81
2023-05-24T03:25:07.697Z,42.81
2023-05-24T03:26:07.700Z,42.79
2023-05-24T03:27:07.683Z,42.80
2023-05-24T03:28:07.729Z,42.80
2023-05-24T03:29:07.686Z,42.79
2023-05-24T03:30:07.703Z,42.79
2023-05-24T03:31:07.692Z,42.78
2023-05-24T03:32:07.685Z,42.79
2023-05-24T03:33:07.754Z,42.77
2023-05-24T03:34:07.677Z,42.79
2023-05-24T03:35:07.686Z,42.78
2023-05-24T03:36:07.689Z,42.78
2023-05-24T03:37:07.684Z,42.78
2023-05-24T03:38:07.681Z,42.78
2023-05-24T03:39:07.694Z,42.79
2023-05-24T03:40:07.680Z,42.78
2023-05-24T03:41:07.672Z,42.78
2023-05-24T03:42:07.684Z,42.76
2023-05-24T03:43:07.682Z,42.80
2023-05-24T03:44:07.672Z,42.78
2023-05-24T03:45:07.713Z,42.77
2023-05-24T03:46:07.724Z,42.77
2023-05-24T03:47:07.653Z,42.76
2023-05-24T03:48:07.679Z,42.78
2023-05-24T03:49:07.721Z,42.76
2023-05-24T03:50:07.638Z,42.78
2023-05-24T03:51:07.647Z,42.77
2023-05-24T03:52:07.644Z,42.78
2023-05-24T03:53:07.671Z,42.74
2023-05-24T03:54:07.684Z,42.78
2023-05-24T03:55:07.658Z,42.75
2023-05-24T03:56:07.666Z,42.73
2023-05-24T03:57:07.639Z,42.74
2023-05-24T03:58:07.647Z,42.74
2023-05-24T03:59:07.666Z,42.73
2023-05-24T04:00:07.649Z,42.75
2023-05-24T04:01:07.659Z,42.74
2023-05-24T04:02:07.728Z,42.75
2023-05-24T04:03:07.741Z,42.75
2023-05-24T04:04:07.727Z,42.75
2023-05-24T04:05:07.681Z,42.74
2023-05-24T04:06:07.680Z,42.76
2023-05-24T04:07:07.652Z,42.73
2023-05-24T04:08:07.647Z,42.73
2023-05-24T04:09:07.673Z,42.75
2023-05-24T04:10:07.648Z,42.73
2023-05-24T04:11:07.636Z,42.75
2023-05-24T04:12:07.636Z,42.72
2023-05-24T04:13:07.636Z,42.75
2023-05-24T04:14:07.784Z,42.72
2023-05-24T04:15:07.646Z,42.75
2023-05-24T04:16:07.652Z,42.71
2023-05-24T04:17:07.836Z,42.74
2023-05-24T04:18:07.749Z,42.71
2023-05-24T04:19:07.638Z,42.72
2023-05-24T04:20:07.731Z,42.71
2023-05-24T04:21:07.647Z,42.71
2023-05-24T04:22:07.653Z,42.71
2023-05-24T04:23:07.626Z,42.71
2023-05-24T04:24:07.639Z,42.71
2023-05-24T04:25:07.785Z,42.68
2023-05-24T04:26:07.661Z,42.68
2023-05-24T04:27:07.627Z,42.68
2023-05-24T04:28:07.639Z,42.69
2023-05-24T04:29:07.608Z,42.68
2023-05-24T04:30:07.643Z,42.67
2023-05-24T04:31:07.702Z,42.70
2023-05-24T04:32:07.646Z,42.65
2023-05-24T04:33:07.735Z,42.67
2023-05-24T04:34:07.786Z,42.66
2023-05-24T04:35:07.621Z,42.69
2023-05-24T04:36:07.623Z,42.65
2023-05-24T04:37:07.643Z,42.66
2023-05-24T04:38:07.623Z,42.66
2023-05-24T04:39:07.602Z,42.67
2023-05-24T04:40:07.604Z,42.65
2023-05-24T04:41:07.611Z,42.65
2023-05-24T04:42:07.623Z,42.67
2023-05-24T04:43:07.630Z,42.67
2023-05-24T04:44:07.632Z,42.66
2023-05-24T04:45:07.669Z,42.65
2023-05-24T04:46:09.099Z,42.64
2023-05-24T04:47:07.745Z,42.63
2023-05-24T04:48:07.718Z,42.69
2023-05-24T04:49:07.687Z,42.62
2023-05-24T04:50:07.627Z,42.62
2023-05-24T04:51:07.657Z,42.63
2023-05-24T04:52:07.653Z,42.66
2023-05-24T04:53:07.653Z,42.63
2023-05-24T04:54:07.631Z,42.65
2023-05-24T04:55:07.644Z,42.63
2023-05-24T04:56:07.695Z,42.66
2023-05-24T04:57:07.648Z,42.67
2023-05-24T04:58:07.639Z,42.65
2023-05-24T04:59:07.637Z,42.64
2023-05-24T05:00:07.710Z,42.65
2023-05-24T05:01:07.631Z,42.67
2023-05-24T05:02:07.684Z,42.65
2023-05-24T05:03:07.688Z,42.65
2023-05-24T05:04:07.978Z,42.63
2023-05-24T05:05:07.655Z,42.61
2023-05-24T05:06:07.660Z,42.64
2023-05-24T05:07:07.654Z,42.66
2023-05-24T05:08:07.713Z,42.63
2023-05-24T05:09:08.626Z,42.64
2023-05-24T05:10:07.767Z,42.64
2023-05-24T05:11:07.795Z,42.63
2023-05-24T05:12:08.716Z,42.63
2023-05-24T05:13:07.824Z,42.64
2023-05-24T05:14:07.621Z,42.65
2023-05-24T05:15:07.677Z,42.65
2023-05-24T05:16:07.653Z,42.61
2023-05-24T05:17:07.641Z,42.62
2023-05-24T05:18:07.683Z,42.59
2023-05-24T05:19:07.665Z,42.57
2023-05-24T05:20:07.705Z,42.58
2023-05-24T05:21:07.692Z,42.54
2023-05-24T05:22:07.626Z,42.56
2023-05-24T05:23:08.260Z,42.69
2023-05-24T05:24:07.662Z,42.92
2023-05-24T05:25:07.641Z,42.92
2023-05-24T05:26:07.617Z,42.78
2023-05-24T05:27:07.658Z,42.68
2023-05-24T05:28:07.806Z,42.63
2023-05-24T05:29:07.638Z,42.61
2023-05-24T05:30:07.784Z,42.59
2023-05-24T05:31:07.724Z,42.57
2023-05-24T05:32:07.749Z,42.92
2023-05-24T05:33:08.301Z,42.97
2023-05-24T05:34:07.634Z,42.87
2023-05-24T05:35:07.717Z,43.15
2023-05-24T05:36:08.934Z,43.23
2023-05-24T05:37:07.672Z,43.32
2023-05-24T05:38:07.647Z,43.58
2023-05-24T05:39:07.653Z,43.41
2023-05-24T05:40:07.623Z,43.45
2023-05-24T05:41:07.691Z,43.53
2023-05-24T05:42:07.692Z,43.69
2023-05-24T05:43:08.696Z,44.06
2023-05-24T05:44:07.776Z,44.30
2023-05-24T05:45:07.806Z,44.31
2023-05-24T05:46:07.912Z,45.20
2023-05-24T05:47:08.214Z,44.95
2023-05-24T05:48:08.033Z,44.68
2023-05-24T05:49:08.098Z,44.97
2023-05-24T05:50:08.282Z,44.83
2023-05-24T05:51:08.140Z,44.79
2023-05-24T05:52:08.701Z,44.72
2023-05-24T05:53:08.277Z,44.94
2023-05-24T05:54:08.402Z,44.86
2023-05-24T05:55:08.435Z,44.66
2023-05-24T05:56:08.442Z,44.79
2023-05-24T05:57:08.450Z,44.86
2023-05-24T05:58:08.527Z,44.92
2023-05-24T05:59:08.555Z,44.89
2023-05-24T06:00:08.575Z,45.05
2023-05-24T06:01:08.575Z,45.09
2023-05-24T06:02:08.700Z,45.21
2023-05-24T06:03:08.830Z,45.23
2023-05-24T06:04:08.821Z,45.24
2023-05-24T06:05:08.689Z,45.19
2023-05-24T06:06:08.754Z,45.32
2023-05-24T06:07:08.736Z,45.18
2023-05-24T06:08:08.839Z,45.37
2023-05-24T06:09:08.809Z,45.48
2023-05-24T06:10:08.863Z,45.54
2023-05-24T06:11:09.210Z,45.54
2023-05-24T06:12:09.680Z,45.46
2023-05-24T06:13:09.001Z,45.38
2023-05-24T06:14:08.928Z,45.50
2023-05-24T06:15:09.064Z,45.47
2023-05-24T06:16:08.961Z,45.34
2023-05-24T06:17:08.934Z,45.40
2023-05-24T06:18:08.923Z,45.53
2023-05-24T06:19:08.893Z,45.44
2023-05-24T06:20:08.977Z,45.54
2023-05-24T06:21:08.919Z,45.54
2023-05-24T06:22:08.898Z,45.65
2023-05-24T06:23:08.895Z,45.68
2023-05-24T06:24:08.978Z,45.74
2023-05-24T06:25:08.986Z,45.75
2023-05-24T06:26:08.942Z,45.66
2023-05-24T06:27:08.944Z,45.73
2023-05-24T06:28:08.933Z,45.79
2023-05-24T06:29:08.981Z,45.93
2023-05-24T06:30:09.065Z,45.82
2023-05-24T06:31:09.224Z,45.96
2023-05-24T06:32:09.064Z,45.86
2023-05-24T06:33:09.062Z,46.04
2023-05-24T06:34:09.024Z,46.04
2023-05-24T06:35:09.057Z,46.04
2023-05-24T06:36:09.416Z,46.02
2023-05-24T06:37:10.124Z,46.07
2023-05-24T06:38:10.040Z,46.05
2023-05-24T06:39:09.069Z,46.11
2023-05-24T06:40:09.017Z,45.96
2023-05-24T06:41:09.372Z,46.13
2023-05-24T06:42:09.027Z,46.34
2023-05-24T06:43:09.097Z,46.30
2023-05-24T06:44:09.206Z,46.26
2023-05-24T06:45:09.177Z,46.29
2023-05-24T06:46:10.692Z,46.42
2023-05-24T06:47:09.431Z,46.35
2023-05-24T06:48:09.418Z,46.34
2023-05-24T06:49:09.347Z,46.39
2023-05-24T06:50:09.467Z,46.38
2023-05-24T06:51:09.760Z,46.44
2023-05-24T06:52:09.715Z,46.47
2023-05-24T06:53:09.583Z,46.54
2023-05-24T06:54:09.562Z,46.58
2023-05-24T06:55:09.649Z,46.52
2023-05-24T06:56:10.246Z,46.57
2023-05-24T06:57:09.829Z,46.59
2023-05-24T06:58:09.815Z,46.64
2023-05-24T06:59:10.937Z,46.59
2023-05-24T07:00:09.907Z,46.59
2023-05-24T07:01:09.998Z,46.62
2023-05-24T07:02:10.062Z,46.62
2023-05-24T07:03:10.162Z,46.70
2023-05-24T07:04:10.852Z,46.70
2023-05-24T07:05:10.201Z,46.78
2023-05-24T07:06:10.386Z,46.78
2023-05-24T07:07:10.402Z,46.86
2023-05-24T07:08:10.509Z,46.85
2023-05-24T07:09:10.485Z,46.93
2023-05-24T07:10:10.541Z,46.98
2023-05-24T07:11:10.654Z,46.96
2023-05-24T07:12:10.657Z,47.04
2023-05-24T07:13:10.800Z,47.11
2023-05-24T07:14:10.763Z,47.02
2023-05-24T07:15:10.884Z,47.10
2023-05-24T07:16:11.291Z,47.14
2023-05-24T07:17:11.448Z,47.26
2023-05-24T07:18:11.169Z,47.17
2023-05-24T07:19:13.948Z,47.17
2023-05-24T07:20:11.175Z,47.25
2023-05-24T07:21:11.023Z,47.23
2023-05-24T07:22:11.261Z,47.25
2023-05-24T07:23:11.025Z,47.36
2023-05-24T07:24:11.029Z,47.47
2023-05-24T07:25:11.006Z,47.53
2023-05-24T07:26:11.215Z,47.85
2023-05-24T07:27:11.018Z,47.80
2023-05-24T07:28:11.027Z,47.73
2023-05-24T07:29:11.007Z,47.90
2023-05-24T07:30:20.078Z,48.03
2023-05-24T07:31:12.353Z,48.06
2023-05-24T07:32:11.024Z,47.95
2023-05-24T07:33:11.047Z,47.79
2023-05-24T07:34:10.948Z,47.52
2023-05-24T07:35:10.986Z,47.38
2023-05-24T07:36:10.921Z,47.06
2023-05-24T07:37:11.395Z,47.01
2023-05-24T07:38:11.751Z,47.03
2023-05-24T07:39:10.948Z,47.12
2023-05-24T07:40:10.982Z,47.49
2023-05-24T07:41:11.004Z,47.18
2023-05-24T07:42:11.091Z,47.48
2023-05-24T07:43:11.279Z,47.53
2023-05-24T07:44:11.133Z,47.50
2023-05-24T07:45:11.121Z,47.33
2023-05-24T07:46:11.142Z,47.43
2023-05-24T07:47:11.255Z,47.27
2023-05-24T07:48:11.162Z,47.29
2023-05-24T07:49:11.083Z,47.18
2023-05-24T07:50:11.071Z,47.00
2023-05-24T07:51:11.337Z,47.01
2023-05-24T07:52:11.130Z,47.10
2023-05-24T07:53:11.196Z,47.37
2023-05-24T07:54:11.279Z,47.36
2023-05-24T07:55:11.186Z,47.35
2023-05-24T07:56:11.261Z,47.37
2023-05-24T07:57:11.276Z,47.41
2023-05-24T07:58:11.330Z,47.44
2023-05-24T07:59:11.384Z,47.41
2023-05-24T08:00:11.390Z,47.56
2023-05-24T08:01:11.735Z,47.52
2023-05-24T08:02:11.473Z,47.65
2023-05-24T08:03:11.607Z,47.77
2023-05-24T08:04:11.561Z,47.71
2023-05-24T08:05:11.612Z,47.70
2023-05-24T08:06:11.637Z,47.73
2023-05-24T08:07:11.737Z,47.71
2023-05-24T08:08:11.650Z,47.84
2023-05-24T08:09:11.684Z,47.88
2023-05-24T08:10:11.655Z,47.87
2023-05-24T08:11:11.738Z,47.88
2023-05-24T08:12:11.673Z,47.93
2023-05-24T08:13:11.616Z,47.86
2023-05-24T08:14:11.596Z,48.00
2023-05-24T08:15:11.627Z,48.12
2023-05-24T08:16:11.640Z,48.28
2023-05-24T08:17:11.596Z,48.29
2023-05-24T08:18:11.594Z,48.45
2023-05-24T08:19:11.735Z,48.46
2023-05-24T08:20:11.638Z,48.44
2023-05-24T08:21:11.732Z,48.39
2023-05-24T08:22:11.542Z,48.55
2023-05-24T08:23:12.557Z,48.65
2023-05-24T08:24:11.565Z,48.59
2023-05-24T08:25:11.576Z,48.68
2023-05-24T08:26:11.510Z,48.71
2023-05-24T08:27:11.541Z,48.74
2023-05-24T08:28:11.547Z,48.71
2023-05-24T08:29:11.580Z,48.76
2023-05-24T08:30:11.480Z,48.47
2023-05-24T08:31:11.521Z,48.78
2023-05-24T08:32:11.537Z,48.79
2023-05-24T08:33:11.554Z,48.77
2023-05-24T08:34:11.522Z,48.73
2023-05-24T08:35:20.824Z,48.83
2023-05-24T08:36:12.496Z,48.88
2023-05-24T08:37:13.089Z,48.82
2023-05-24T08:38:11.740Z,48.89
2023-05-24T08:39:11.711Z,48.98
2023-05-24T08:40:11.676Z,49.03
2023-05-24T08:41:11.740Z,49.16
2023-05-24T08:42:11.776Z,49.15
2023-05-24T08:43:11.790Z,49.08
2023-05-24T08:44:11.781Z,49.06
2023-05-24T08:45:11.769Z,49.20
2023-05-24T08:46:11.852Z,49.38
2023-05-24T08:47:11.740Z,49.34
2023-05-24T08:48:11.862Z,49.39
2023-05-24T08:49:11.746Z,49.23
2023-05-24T08:50:11.764Z,49.32
2023-05-24T08:51:11.723Z,49.22
2023-05-24T08:52:11.730Z,49.29
2023-05-24T08:53:11.714Z,49.29
2023-05-24T08:54:11.725Z,49.39
2023-05-24T08:55:11.732Z,49.39
2023-05-24T08:56:11.730Z,49.32
2023-05-24T08:57:11.707Z,49.39
2023-05-24T08:58:11.730Z,49.39
2023-05-24T08:59:11.687Z,49.81
2023-05-24T09:00:11.924Z,50.16
2023-05-24T09:01:11.762Z,50.12
2023-05-24T09:02:11.791Z,50.06
2023-05-24T09:03:11.755Z,49.91
2023-05-24T09:04:11.890Z,49.85
2023-05-24T09:05:11.719Z,49.77
2023-05-24T09:06:11.681Z,49.62
2023-05-24T09:07:11.696Z,49.32
2023-05-24T09:08:11.707Z,49.13
2023-05-24T09:09:11.663Z,48.98
2023-05-24T09:10:11.736Z,49.44
2023-05-24T09:11:11.714Z,49.24
2023-05-24T09:12:16.752Z,49.42
2023-05-24T09:13:11.691Z,48.86
2023-05-24T09:14:11.695Z,48.42
2023-05-24T09:15:11.653Z,48.20
2023-05-24T09:16:11.841Z,48.93
2023-05-24T09:17:11.806Z,48.70
2023-05-24T09:18:11.668Z,47.89
2023-05-24T09:19:11.659Z,47.49
2023-05-24T09:20:11.880Z,47.29
2023-05-24T09:21:11.885Z,47.30
2023-05-24T09:22:11.646Z,47.63
2023-05-24T09:23:11.625Z,48.47
2023-05-24T09:24:11.648Z,48.55
2023-05-24T09:25:11.610Z,48.59
2023-05-24T09:26:11.843Z,48.38
2023-05-24T09:27:11.598Z,48.30
2023-05-24T09:28:11.666Z,48.32
2023-05-24T09:29:11.649Z,48.07
2023-05-24T09:30:11.570Z,48.23
2023-05-24T09:31:11.906Z,48.19
2023-05-24T09:32:11.785Z,48.32
2023-05-24T09:33:12.229Z,48.23
2023-05-24T09:34:11.676Z,48.43
2023-05-24T09:35:11.597Z,48.48
2023-05-24T09:36:13.382Z,48.29
2023-05-24T09:37:11.862Z,48.34
2023-05-24T09:38:11.503Z,48.35
2023-05-24T09:39:11.558Z,48.41
2023-05-24T09:40:11.515Z,48.40
2023-05-24T09:41:11.481Z,48.37
2023-05-24T09:42:11.574Z,48.29
2023-05-24T09:43:11.491Z,48.32
2023-05-24T09:44:11.475Z,48.31
2023-05-24T09:45:11.465Z,48.44
2023-05-24T09:46:11.509Z,48.36
2023-05-24T09:47:11.927Z,48.30
2023-05-24T09:48:11.567Z,48.32
2023-05-24T09:49:11.515Z,48.38
2023-05-24T09:50:11.472Z,48.34
2023-05-24T09:51:11.427Z,48.24
2023-05-24T09:52:11.496Z,48.26
2023-05-24T09:53:11.430Z,48.24
2023-05-24T09:54:11.484Z,48.29
2023-05-24T09:55:11.521Z,48.21
2023-05-24T09:56:11.525Z,48.27
2023-05-24T09:57:11.587Z,48.23
2023-05-24T09:58:11.616Z,48.24
2023-05-24T09:59:11.635Z,48.22
2023-05-24T10:00:11.702Z,48.14
2023-05-24T10:01:11.730Z,48.16
2023-05-24T10:02:11.797Z,48.22
2023-05-24T10:03:11.981Z,47.99
2023-05-24T10:04:11.979Z,47.96
2023-05-24T10:05:11.944Z,47.94
2023-05-24T10:06:11.938Z,47.88
2023-05-24T10:07:11.999Z,47.89
2023-05-24T10:08:12.186Z,47.87
2023-05-24T10:09:13.064Z,47.84
2023-05-24T10:10:12.057Z,47.83
2023-05-24T10:11:12.110Z,47.83
2023-05-24T10:12:12.227Z,47.81
2023-05-24T10:13:12.174Z,47.82
2023-05-24T10:14:12.226Z,47.75
2023-05-24T10:15:12.248Z,47.77
2023-05-24T10:16:12.329Z,47.64
2023-05-24T10:17:12.512Z,47.61
2023-05-24T10:18:14.300Z,47.60
2023-05-24T10:19:12.441Z,47.65
2023-05-24T10:20:12.682Z,47.67
2023-05-24T10:21:13.292Z,47.64
2023-05-24T10:22:12.569Z,47.62
2023-05-24T10:23:12.954Z,47.63
2023-05-24T10:24:12.715Z,47.65
2023-05-24T10:25:12.781Z,47.57
2023-05-24T10:26:12.901Z,47.54
2023-05-24T10:27:12.837Z,47.51
2023-05-24T10:28:12.919Z,47.49
2023-05-24T10:29:12.966Z,47.57
2023-05-24T10:30:13.959Z,47.52
2023-05-24T10:31:13.167Z,47.48
2023-05-24T10:32:13.086Z,47.38
2023-05-24T10:33:13.272Z,47.32
2023-05-24T10:34:13.206Z,47.28
2023-05-24T10:35:13.282Z,47.29
2023-05-24T10:36:13.285Z,47.29
2023-05-24T10:37:13.341Z,47.36
2023-05-24T10:38:13.412Z,47.34
2023-05-24T10:39:13.569Z,47.38
2023-05-24T10:40:13.621Z,47.29
2023-05-24T10:41:13.543Z,47.26
2023-05-24T10:42:13.630Z,47.28
2023-05-24T10:43:13.631Z,47.21
2023-05-24T10:44:13.692Z,47.21
2023-05-24T10:45:13.778Z,47.20
2023-05-24T10:46:13.850Z,47.17
2023-05-24T10:47:13.878Z,47.12
2023-05-24T10:48:14.037Z,47.18
2023-05-24T10:49:14.010Z,47.11
2023-05-24T10:50:14.062Z,47.14
2023-05-24T10:51:14.059Z,47.15
2023-05-24T10:52:14.141Z,47.16
2023-05-24T10:53:14.245Z,47.18
2023-05-24T10:54:14.271Z,47.15
2023-05-24T10:55:14.323Z,47.14
2023-05-24T10:56:14.379Z,47.10
2023-05-24T10:57:14.426Z,47.05
2023-05-24T10:58:14.486Z,47.11
2023-05-24T10:59:14.540Z,47.16
2023-05-24T11:00:17.950Z,47.16
2023-05-24T11:01:15.915Z,47.19
2023-05-24T11:02:14.685Z,47.14
2023-05-24T11:03:14.708Z,47.14
2023-05-24T11:04:15.330Z,47.18
2023-05-24T11:05:14.627Z,47.10
2023-05-24T11:06:14.600Z,47.09
2023-05-24T11:07:14.821Z,47.09
2023-05-24T11:08:14.559Z,47.04
2023-05-24T11:09:14.584Z,47.08
2023-05-24T11:10:14.633Z,47.09
2023-05-24T11:11:23.439Z,47.03
2023-05-24T11:12:15.710Z,47.05
2023-05-24T11:13:14.657Z,47.02
2023-05-24T11:14:14.659Z,47.03
2023-05-24T11:15:14.642Z,47.02
2023-05-24T11:16:14.691Z,46.99
2023-05-24T11:17:15.335Z,46.96
2023-05-24T11:18:14.758Z,46.92
2023-05-24T11:19:14.646Z,46.83
2023-05-24T11:20:14.681Z,46.83
2023-05-24T11:21:14.731Z,46.84
2023-05-24T11:22:14.888Z,46.87
2023-05-24T11:23:14.838Z,46.88
2023-05-24T11:24:14.937Z,46.83
2023-05-24T11:25:14.938Z,46.85
2023-05-24T11:26:15.011Z,46.86
2023-05-24T11:27:15.106Z,46.82
2023-05-24T11:28:15.228Z,46.82
2023-05-24T11:29:15.234Z,46.78
2023-05-24T11:30:15.267Z,46.83
2023-05-24T11:31:15.418Z,46.81
2023-05-24T11:32:15.617Z,46.82
2023-05-24T11:33:15.439Z,46.78
2023-05-24T11:34:15.393Z,46.75
2023-05-24T11:35:15.475Z,46.73
2023-05-24T11:36:15.528Z,46.72
2023-05-24T11:37:17.702Z,46.70
2023-05-24T11:38:15.625Z,46.71
2023-05-24T11:39:15.490Z,46.66
2023-05-24T11:40:15.506Z,46.64
2023-05-24T11:41:15.476Z,46.55
2023-05-24T11:42:15.506Z,46.55
2023-05-24T11:43:16.786Z,46.49
2023-05-24T11:44:15.472Z,46.47
2023-05-24T11:45:15.448Z,46.41
2023-05-24T11:46:15.512Z,46.36
2023-05-24T11:47:15.537Z,46.38
2023-05-24T11:48:15.559Z,46.36
2023-05-24T11:49:15.431Z,46.36
2023-05-24T11:50:15.468Z,46.34
2023-05-24T11:51:15.395Z,46.36
2023-05-24T11:52:15.432Z,46.33
2023-05-24T11:53:15.396Z,46.32
2023-05-24T11:54:15.392Z,46.26
2023-05-24T11:55:16.742Z,46.27
2023-05-24T11:56:15.462Z,46.22
2023-05-24T11:57:16.411Z,46.17
2023-05-24T11:58:16.440Z,46.10
2023-05-24T11:59:15.657Z,46.09
2023-05-24T12:00:15.533Z,46.01
2023-05-24T12:01:15.615Z,46.01
2023-05-24T12:02:18.850Z,46.04
2023-05-24T12:03:15.776Z,46.06
2023-05-24T12:04:15.728Z,46.13
2023-05-24T12:05:15.601Z,46.12
2023-05-24T12:06:15.607Z,46.14
2023-05-24T12:07:15.852Z,46.16
2023-05-24T12:08:15.584Z,46.19
2023-05-24T12:09:15.591Z,46.20
2023-05-24T12:10:15.583Z,46.16
2023-05-24T12:11:15.587Z,46.18
2023-05-24T12:12:18.238Z,46.17
2023-05-24T12:13:15.561Z,46.18
2023-05-24T12:14:15.567Z,46.19
2023-05-24T12:15:15.542Z,46.16
2023-05-24T12:16:15.638Z,46.13
2023-05-24T12:17:15.828Z,46.16
2023-05-24T12:18:15.520Z,46.15
2023-05-24T12:20:15.582Z,46.11
2023-05-24T12:21:16.266Z,46.02
2023-05-24T12:22:15.482Z,45.99
2023-05-24T12:23:15.514Z,45.97
2023-05-24T12:24:15.474Z,46.00
2023-05-24T12:25:15.459Z,45.99
2023-05-24T12:26:15.430Z,45.94
2023-05-24T12:27:15.477Z,46.49
2023-05-24T12:28:15.421Z,47.14
2023-05-24T12:29:15.429Z,46.96
2023-05-24T12:30:15.468Z,46.82
2023-05-24T12:31:15.598Z,46.82
2023-05-24T12:32:15.843Z,46.68
2023-05-24T12:33:15.380Z,47.45
2023-05-24T12:34:15.483Z,48.28
2023-05-24T12:35:15.394Z,48.07
2023-05-24T12:36:15.392Z,47.84
2023-05-24T12:37:15.420Z,47.62
2023-05-24T12:38:15.373Z,47.50
2023-05-24T12:39:15.355Z,47.34
2023-05-24T12:40:15.465Z,47.28
2023-05-24T12:41:16.353Z,47.27
2023-05-24T12:42:16.468Z,47.31
2023-05-24T12:43:15.339Z,47.26
2023-05-24T12:44:15.472Z,47.29
2023-05-24T12:45:15.356Z,47.22
2023-05-24T12:46:16.447Z,47.06
2023-05-24T12:47:15.406Z,47.06
2023-05-24T12:48:15.532Z,47.16
2023-05-24T12:49:15.270Z,47.16
2023-05-24T12:50:15.289Z,47.08
2023-05-24T12:51:15.344Z,47.00
2023-05-24T12:52:15.377Z,47.18
2023-05-24T12:53:15.249Z,47.07
2023-05-24T12:54:15.268Z,47.15
2023-05-24T12:55:15.235Z,47.13